createdAt,value
2019-03-11T00:01:12.681Z,98773.61
2019-03-11T00:03:42.317Z,98775.95
2019-03-11T00:06:11.932Z,98761.09
2019-03-11T00:08:41.651Z,98772.98
2019-03-11T00:11:11.327Z,98774.91
2019-03-11T00:13:40.977Z,98778.97
2019-03-11T00:16:10.592Z,98773.26
2019-03-11T00:18:40.230Z,98774.70
2019-03-11T00:21:09.844Z,98766.18
2019-03-11T00:23:39.484Z,98765.98
2019-03-11T00:26:09.099Z,98766.61
2019-03-11T00:28:38.810Z,98765.52
2019-03-11T00:31:08.424Z,98769.66
2019-03-11T00:33:38.057Z,98769.70
2019-03-11T00:36:07.682Z,98770.20
2019-03-11T00:38:37.298Z,98766.41
2019-03-11T00:41:06.938Z,98771.38
2019-03-11T00:43:36.556Z,98780.45
2019-03-11T00:46:06.204Z,98778.48
2019-03-11T00:48:35.890Z,98778.95
2019-03-11T00:51:05.524Z,98769.56
2019-03-11T00:53:35.214Z,98770.66
2019-03-11T00:56:04.921Z,98768.70
2019-03-11T00:58:34.540Z,98766.91
2019-03-11T01:01:04.247Z,98774.96
2019-03-11T01:03:33.861Z,98772.25
2019-03-11T01:06:03.504Z,98765.22
2019-03-11T01:08:33.118Z,98774.24
2019-03-11T01:11:02.762Z,98770.68
2019-03-11T01:13:32.541Z,98768.59
2019-03-11T01:16:02.246Z,98770.37
2019-03-11T01:18:31.861Z,98766.44
2019-03-11T01:21:01.508Z,98767.34
2019-03-11T01:23:31.114Z,98764.95
2019-03-11T01:26:00.749Z,98760.56
2019-03-11T01:28:30.367Z,98754.74
2019-03-11T01:31:00.003Z,98754.25
2019-03-11T01:33:29.621Z,98751.49
2019-03-11T01:35:59.256Z,98742.22
2019-03-11T01:38:28.869Z,98733.66
2019-03-11T01:40:58.515Z,98733.66
2019-03-11T01:43:28.115Z,98734.72
2019-03-11T01:45:57.759Z,98720.59
2019-03-11T01:48:27.374Z,98721.96
2019-03-11T01:50:57.011Z,98718.46
2019-03-11T01:53:26.630Z,98713.66
2019-03-11T01:55:56.268Z,98701.42
2019-03-11T01:58:25.948Z,98696.11
2019-03-11T02:00:55.661Z,98692.31
2019-03-11T02:03:25.272Z,98681.19
2019-03-11T02:05:54.908Z,98674.37
2019-03-11T02:08:24.524Z,98667.14
2019-03-11T02:10:54.163Z,98664.99
2019-03-11T02:13:23.786Z,98664.12
2019-03-11T02:15:53.424Z,98656.38
2019-03-11T02:18:23.035Z,98659.17
2019-03-11T02:20:52.672Z,98656.55
2019-03-11T02:23:22.289Z,98657.45
2019-03-11T02:25:51.930Z,98650.74
2019-03-11T02:28:21.549Z,98641.61
2019-03-11T02:30:51.181Z,98637.02
2019-03-11T02:33:20.796Z,98636.03
2019-03-11T02:35:50.438Z,98638.69
2019-03-11T02:38:20.049Z,98630.55
2019-03-11T02:40:49.690Z,98627.84
2019-03-11T02:43:19.380Z,98627.98
2019-03-11T02:45:48.992Z,98618.69
2019-03-11T02:48:18.636Z,98609.16
2019-03-11T02:50:48.380Z,98595.89
2019-03-11T02:53:18.242Z,98590.02
2019-03-11T02:55:51.074Z,98591.99
2019-03-11T02:58:19.332Z,98581.61
2019-03-11T03:00:50.596Z,98577.97
2019-03-11T03:03:39.909Z,98571.89
2019-03-11T03:06:11.170Z,98564.68
2019-03-11T03:08:40.804Z,98564.99
2019-03-11T03:11:10.493Z,98565.66
2019-03-11T03:13:40.135Z,98556.96
2019-03-11T03:16:09.821Z,98554.96
2019-03-11T03:18:42.250Z,98551.64
2019-03-11T03:21:11.859Z,98549.34
2019-03-11T03:23:41.492Z,98554.22
2019-03-11T03:26:11.103Z,98554.06
2019-03-11T03:28:40.749Z,98551.80
2019-03-11T03:31:10.363Z,98545.59
2019-03-11T03:33:40.083Z,98546.61
2019-03-11T03:36:09.703Z,98544.02
2019-03-11T03:38:39.342Z,98541.16
2019-03-11T03:41:09.994Z,98543.28
2019-03-11T03:43:39.640Z,98540.28
2019-03-11T03:46:18.634Z,98535.00
2019-03-11T03:48:40.882Z,98536.02
2019-03-11T03:51:10.793Z,98526.07
2019-03-11T03:53:40.430Z,98526.81
2019-03-11T03:56:10.045Z,98526.30
2019-03-11T03:58:39.688Z,98524.91
2019-03-11T04:01:09.294Z,98530.25
2019-03-11T04:03:38.940Z,98520.68
2019-03-11T04:06:08.550Z,98530.63
2019-03-11T04:08:38.200Z,98523.61
2019-03-11T04:11:07.907Z,98524.66
2019-03-11T04:13:37.597Z,98525.05
2019-03-11T04:16:07.349Z,98522.51
2019-03-11T04:18:54.007Z,98526.61
2019-03-11T04:21:23.698Z,98520.05
2019-03-11T04:23:53.560Z,98525.75
2019-03-11T04:26:27.812Z,98523.76
2019-03-11T04:28:56.880Z,98525.95
2019-03-11T04:31:26.525Z,98522.42
2019-03-11T04:33:56.307Z,98512.91
2019-03-11T04:36:25.996Z,98530.63
2019-03-11T04:38:55.627Z,98514.63
2019-03-11T04:41:25.235Z,98528.26
2019-03-11T04:43:54.872Z,98518.14
2019-03-11T04:46:24.491Z,98505.68
2019-03-11T04:48:54.127Z,98504.36
2019-03-11T04:51:23.734Z,98504.36
2019-03-11T04:53:53.373Z,98507.09
2019-03-11T04:56:22.983Z,98514.90
2019-03-11T04:58:52.625Z,98515.29
2019-03-11T05:01:22.242Z,98529.59
2019-03-11T05:03:51.886Z,98530.02
2019-03-11T05:06:21.500Z,98521.70
2019-03-11T05:08:51.136Z,98521.34
2019-03-11T05:11:20.747Z,98513.53
2019-03-11T05:13:50.382Z,98514.90
2019-03-11T05:16:19.997Z,98511.77
2019-03-11T05:18:49.635Z,98519.07
2019-03-11T05:21:19.254Z,98519.77
2019-03-11T05:23:48.895Z,98531.52
2019-03-11T05:26:18.508Z,98535.93
2019-03-11T05:28:49.367Z,98535.02
2019-03-11T05:31:19.501Z,98528.72
2019-03-11T05:33:49.140Z,98529.25
2019-03-11T05:36:18.759Z,98518.23
2019-03-11T05:38:48.400Z,98522.28
2019-03-11T05:41:18.012Z,98515.01
2019-03-11T05:43:47.645Z,98515.97
2019-03-11T05:46:17.259Z,98516.55
2019-03-11T05:48:46.898Z,98520.67
2019-03-11T05:51:16.510Z,98515.51
2019-03-11T05:53:46.141Z,98522.74
2019-03-11T05:56:15.753Z,98523.92
2019-03-11T05:58:45.392Z,98523.70
2019-03-11T06:01:15.004Z,98532.41
2019-03-11T06:03:44.644Z,98504.59
2019-03-11T06:06:14.274Z,98500.70
2019-03-11T06:08:43.908Z,98503.64
2019-03-11T06:11:13.525Z,98494.00
2019-03-11T06:13:43.165Z,98498.79
2019-03-11T06:16:12.781Z,98506.58
2019-03-11T06:18:44.637Z,98491.48
2019-03-11T06:21:16.191Z,98495.23
2019-03-11T06:23:45.809Z,98499.89
2019-03-11T06:26:15.500Z,98499.61
2019-03-11T06:28:45.132Z,98497.38
2019-03-11T06:31:14.769Z,98497.47
2019-03-11T06:33:44.396Z,98492.45
2019-03-11T06:36:14.028Z,98489.30
2019-03-11T06:38:43.638Z,98485.05
2019-03-11T06:41:13.273Z,98489.14
2019-03-11T06:43:42.888Z,98485.45
2019-03-11T06:46:12.522Z,98504.53
2019-03-11T06:48:42.137Z,98524.99
2019-03-11T06:51:11.771Z,98530.57
2019-03-11T06:53:41.381Z,98534.45
2019-03-11T06:56:11.015Z,98545.55
2019-03-11T06:58:40.631Z,98546.68
2019-03-11T07:01:10.266Z,98524.17
2019-03-11T07:03:39.886Z,98507.33
2019-03-11T07:06:09.523Z,98492.89
2019-03-11T07:08:39.136Z,98501.75
2019-03-11T07:11:08.778Z,98496.02
2019-03-11T07:13:38.393Z,98518.97
2019-03-11T07:16:09.494Z,98518.05
2019-03-11T07:18:39.327Z,98517.11
2019-03-11T07:21:08.957Z,98520.19
2019-03-11T07:23:38.574Z,98534.25
2019-03-11T07:26:08.239Z,98550.75
2019-03-11T07:28:37.855Z,98563.16
2019-03-11T07:31:07.557Z,98565.80
2019-03-11T07:33:37.174Z,98560.25
2019-03-11T07:36:07.213Z,98554.41
2019-03-11T07:38:36.842Z,98550.43
2019-03-11T07:41:06.547Z,98547.05
2019-03-11T07:43:36.161Z,98559.33
2019-03-11T07:46:05.870Z,98570.81
2019-03-11T07:48:35.515Z,98582.01
2019-03-11T07:51:05.126Z,98584.47
2019-03-11T07:53:34.765Z,98579.08
2019-03-11T07:56:04.451Z,98577.80
2019-03-11T07:58:34.094Z,98572.05
2019-03-11T08:01:03.779Z,98583.66
2019-03-11T08:03:33.420Z,98581.19
2019-03-11T08:06:03.030Z,98609.44
2019-03-11T08:08:32.670Z,98615.47
2019-03-11T08:11:02.279Z,98619.81
2019-03-11T08:13:31.917Z,98628.59
2019-03-11T08:16:01.528Z,98627.90
2019-03-11T08:18:35.330Z,98630.73
2019-03-11T08:21:02.514Z,98630.33
2019-03-11T08:23:32.173Z,98625.11
2019-03-11T08:26:01.783Z,98624.06
2019-03-11T08:28:31.401Z,98621.60
2019-03-11T08:31:01.040Z,98633.35
2019-03-11T08:33:30.656Z,98626.11
2019-03-11T08:36:00.298Z,98622.97
2019-03-11T08:38:29.915Z,98633.67
2019-03-11T08:40:59.551Z,98628.31
2019-03-11T08:43:29.170Z,98623.38
2019-03-11T08:45:58.807Z,98631.30
2019-03-11T08:48:28.435Z,98632.39
2019-03-11T08:50:58.070Z,98627.41
2019-03-11T08:53:27.679Z,98622.28
2019-03-11T08:55:57.328Z,98606.92
2019-03-11T08:58:26.929Z,98595.81
2019-03-11T09:00:56.568Z,98598.55
2019-03-11T09:03:26.255Z,98586.69
2019-03-11T09:05:55.894Z,98595.88
2019-03-11T09:08:25.497Z,98611.27
2019-03-11T09:10:55.211Z,98608.77
2019-03-11T09:13:24.823Z,98612.17
2019-03-11T09:15:54.456Z,98631.63
2019-03-11T09:18:24.073Z,98625.96
2019-03-11T09:20:53.685Z,98613.66
2019-03-11T09:23:23.319Z,98621.47
2019-03-11T09:25:52.948Z,98607.45
2019-03-11T09:28:22.809Z,98631.47
2019-03-11T09:30:52.562Z,98629.80
2019-03-11T09:33:22.429Z,98615.51
2019-03-11T09:35:52.113Z,98624.65
2019-03-11T09:38:21.750Z,98630.62
2019-03-11T09:40:51.370Z,98629.06
2019-03-11T09:43:21.010Z,98625.34
2019-03-11T09:45:50.628Z,98621.17
2019-03-11T09:48:20.334Z,98635.55
2019-03-11T09:50:49.958Z,98636.69
2019-03-11T09:53:19.651Z,98644.63
2019-03-11T09:55:49.266Z,98635.11
2019-03-11T09:58:18.908Z,98644.45
2019-03-11T10:00:48.664Z,98634.63
2019-03-11T10:03:18.302Z,98628.69
2019-03-11T10:05:47.921Z,98640.87
2019-03-11T10:08:17.559Z,98651.34
2019-03-11T10:10:47.178Z,98661.01
2019-03-11T10:13:16.827Z,98653.85
2019-03-11T10:15:46.433Z,98655.84
2019-03-11T10:18:16.066Z,98666.20
2019-03-11T10:20:45.750Z,98666.28
2019-03-11T10:23:15.386Z,98675.08
2019-03-11T10:25:44.993Z,98679.62
2019-03-11T10:28:14.658Z,98692.13
2019-03-11T10:30:44.274Z,98680.05
2019-03-11T10:33:13.964Z,98694.55
2019-03-11T10:35:43.866Z,98692.94
2019-03-11T10:38:13.497Z,98690.25
2019-03-11T10:40:43.210Z,98697.83
2019-03-11T10:43:12.829Z,98698.53
2019-03-11T10:45:42.452Z,98700.38
2019-03-11T10:48:12.061Z,98700.66
2019-03-11T10:50:41.733Z,98716.89
2019-03-11T10:53:11.320Z,98714.23
2019-03-11T10:55:40.952Z,98713.72
2019-03-11T10:58:10.575Z,98714.55
2019-03-11T11:00:40.613Z,98714.42
2019-03-11T11:03:10.226Z,98715.09
2019-03-11T11:05:39.884Z,98716.11
2019-03-11T11:08:09.520Z,98710.66
2019-03-11T11:10:39.125Z,98705.93
2019-03-11T11:13:08.759Z,98714.85
2019-03-11T11:15:38.436Z,98711.88
2019-03-11T11:18:08.069Z,98715.59
2019-03-11T11:20:37.681Z,98711.30
2019-03-11T11:23:07.393Z,98718.10
2019-03-11T11:25:37.005Z,98731.28
2019-03-11T11:28:06.848Z,98732.57
2019-03-11T11:30:36.606Z,98746.38
2019-03-11T11:33:06.314Z,98736.64
2019-03-11T11:35:35.922Z,98742.70
2019-03-11T11:38:05.704Z,98746.97
2019-03-11T11:40:35.318Z,98755.22
2019-03-11T11:43:05.361Z,98740.62
2019-03-11T11:45:34.971Z,98759.91
2019-03-11T11:48:04.752Z,98750.05
2019-03-11T11:50:34.369Z,98737.58
2019-03-11T11:53:04.083Z,98753.38
2019-03-11T11:55:33.703Z,98760.70
2019-03-11T11:58:03.338Z,98749.70
2019-03-11T12:00:35.230Z,98761.05
2019-03-11T12:03:05.012Z,98768.48
2019-03-11T12:05:34.762Z,98762.06
2019-03-11T12:08:04.399Z,98766.45
2019-03-11T12:10:34.953Z,98771.66
2019-03-11T12:13:04.743Z,98775.30
2019-03-11T12:15:34.353Z,98771.17
2019-03-11T12:18:04.030Z,98779.11
2019-03-11T12:20:33.804Z,98780.15
2019-03-11T12:23:03.412Z,98793.08
2019-03-11T12:25:33.053Z,98802.16
2019-03-11T12:28:03.310Z,98810.20
2019-03-11T12:30:35.787Z,98810.23
2019-03-11T12:33:05.476Z,98798.19
2019-03-11T12:35:35.250Z,98803.59
2019-03-11T12:38:04.936Z,98803.56
2019-03-11T12:40:34.638Z,98783.16
2019-03-11T12:43:04.290Z,98786.81
2019-03-11T12:45:33.975Z,98778.20
2019-03-11T12:48:03.592Z,98776.33
2019-03-11T12:50:34.173Z,98769.11
2019-03-11T12:53:03.860Z,98777.89
2019-03-11T12:55:33.639Z,98776.19
2019-03-11T12:58:03.488Z,98766.05
2019-03-11T13:00:33.193Z,98768.48
2019-03-11T13:03:02.947Z,98776.50
2019-03-11T13:05:32.612Z,98776.80
2019-03-11T13:08:02.377Z,98807.75
2019-03-11T13:10:33.457Z,98820.55
2019-03-11T13:13:03.659Z,98803.09
2019-03-11T13:15:33.458Z,98806.46
2019-03-11T13:18:36.493Z,98808.16
2019-03-11T13:21:17.230Z,98808.25
2019-03-11T13:23:46.993Z,98814.95
2019-03-11T13:26:16.680Z,98810.22
2019-03-11T13:28:47.902Z,98815.78
2019-03-11T13:31:17.515Z,98799.94
2019-03-11T13:33:47.157Z,98798.68
2019-03-11T13:36:16.838Z,98793.52
2019-03-11T13:38:46.549Z,98804.83
2019-03-11T13:41:16.233Z,98801.38
2019-03-11T13:43:48.447Z,98806.83
2019-03-11T13:46:17.357Z,98807.73
2019-03-11T13:48:47.006Z,98806.83
2019-03-11T13:51:16.757Z,98808.70
2019-03-11T13:53:46.462Z,98819.11
2019-03-11T13:56:16.148Z,98822.78
2019-03-11T13:58:45.804Z,98829.10
2019-03-11T14:01:15.488Z,98826.98
2019-03-11T14:03:45.252Z,98839.05
2019-03-11T14:06:14.898Z,98843.25
2019-03-11T14:08:44.521Z,98848.38
2019-03-11T14:11:14.160Z,98856.78
2019-03-11T14:13:43.780Z,98854.61
2019-03-11T14:16:13.507Z,98860.48
2019-03-11T14:18:43.131Z,98865.63
2019-03-11T14:21:12.840Z,98868.20
2019-03-11T14:23:42.461Z,98875.13
2019-03-11T14:26:12.105Z,98877.39
2019-03-11T14:28:41.738Z,98878.06
2019-03-11T14:31:11.450Z,98872.16
2019-03-11T14:33:41.059Z,98873.41
2019-03-11T14:36:10.703Z,98872.65
2019-03-11T14:38:40.325Z,98888.80
2019-03-11T14:41:09.973Z,98898.75
2019-03-11T14:43:39.665Z,98903.28
2019-03-11T14:46:09.325Z,98914.39
2019-03-11T14:48:39.031Z,98921.86
2019-03-11T14:51:08.850Z,98936.77
2019-03-11T14:53:38.934Z,98923.14
2019-03-11T14:56:11.364Z,98925.30
2019-03-11T14:58:41.189Z,98944.88
2019-03-11T15:01:10.929Z,98944.23
2019-03-11T15:03:40.595Z,98954.01
2019-03-11T15:06:10.408Z,98943.06
2019-03-11T15:08:40.104Z,98943.41
2019-03-11T15:11:09.906Z,98949.17
2019-03-11T15:13:39.534Z,98931.38
2019-03-11T15:16:09.506Z,98931.48
2019-03-11T15:18:39.139Z,98935.48
2019-03-11T15:21:08.934Z,98923.71
2019-03-11T15:23:38.643Z,98929.08
2019-03-11T15:26:08.713Z,98917.73
2019-03-11T15:28:38.701Z,98910.86
2019-03-11T15:31:10.778Z,98907.75
2019-03-11T15:33:42.005Z,98905.70
2019-03-11T15:36:11.979Z,98911.91
2019-03-11T15:38:41.735Z,98898.53
2019-03-11T15:41:11.731Z,98913.08
2019-03-11T15:43:41.502Z,98917.30
2019-03-11T15:46:11.500Z,98912.53
2019-03-11T15:48:41.392Z,98922.62
2019-03-11T15:51:11.314Z,98926.99
2019-03-11T15:53:41.038Z,98930.42
2019-03-11T15:56:10.795Z,98933.53
2019-03-11T15:58:40.600Z,98940.32
2019-03-11T16:01:10.337Z,98939.94
2019-03-11T16:03:40.062Z,98948.75
2019-03-11T16:06:09.687Z,98938.30
2019-03-11T16:08:39.296Z,98944.80
2019-03-11T16:11:09.071Z,98947.48
2019-03-11T16:13:38.685Z,98947.34
2019-03-11T16:16:08.696Z,98950.32
2019-03-11T16:18:38.452Z,98947.03
2019-03-11T16:21:08.103Z,98961.25
2019-03-11T16:23:37.715Z,98974.52
2019-03-11T16:26:07.359Z,98970.70
2019-03-11T16:28:47.543Z,98971.73
2019-03-11T16:31:08.331Z,98990.34
2019-03-11T16:33:38.636Z,98999.38
2019-03-11T16:36:08.257Z,98994.66
2019-03-11T16:38:38.118Z,98987.08
2019-03-11T16:41:07.754Z,98984.91
2019-03-11T16:43:37.365Z,98988.26
2019-03-11T16:46:07.079Z,98983.44
2019-03-11T16:48:36.769Z,98985.86
2019-03-11T16:51:06.479Z,98990.48
2019-03-11T16:53:36.089Z,98998.38
2019-03-11T16:56:05.940Z,98998.39
2019-03-11T16:58:35.568Z,98988.91
2019-03-11T17:01:07.081Z,98995.22
2019-03-11T17:03:36.768Z,99008.12
2019-03-11T17:06:06.542Z,99002.13
2019-03-11T17:08:36.151Z,99001.75
2019-03-11T17:11:05.849Z,98997.22
2019-03-11T17:13:35.467Z,99000.33
2019-03-11T17:16:05.179Z,99004.55
2019-03-11T17:18:34.797Z,99005.25
2019-03-11T17:21:04.570Z,99008.73
2019-03-11T17:23:34.184Z,99012.44
2019-03-11T17:26:03.824Z,99014.59
2019-03-11T17:28:34.509Z,99023.39
2019-03-11T17:31:04.149Z,99031.68
2019-03-11T17:33:33.767Z,99044.66
2019-03-11T17:36:03.471Z,99043.86
2019-03-11T17:38:33.079Z,99050.60
2019-03-11T17:41:02.727Z,99051.83
2019-03-11T17:43:33.941Z,99056.45
2019-03-11T17:46:03.960Z,99062.48
2019-03-11T17:48:33.574Z,99061.88
2019-03-11T17:51:03.219Z,99070.14
2019-03-11T17:53:32.866Z,99072.00
2019-03-11T17:56:02.579Z,99070.04
2019-03-11T17:58:32.197Z,99082.73
2019-03-11T18:01:01.835Z,99090.98
2019-03-11T18:03:31.455Z,99098.33
2019-03-11T18:06:11.197Z,99100.27
2019-03-11T18:08:32.501Z,99103.14
2019-03-11T18:11:02.987Z,99106.27
2019-03-11T18:13:32.609Z,99107.92
2019-03-11T18:16:02.322Z,99116.05
2019-03-11T18:18:33.263Z,99125.72
2019-03-11T18:21:03.254Z,99136.04
2019-03-11T18:23:32.863Z,99135.76
2019-03-11T18:26:07.260Z,99140.84
2019-03-11T18:28:37.104Z,99151.28
2019-03-11T18:31:06.736Z,99150.67
2019-03-11T18:33:36.510Z,99158.95
2019-03-11T18:36:07.745Z,99161.72
2019-03-11T18:38:37.612Z,99166.89
2019-03-11T18:41:07.297Z,99170.55
2019-03-11T18:43:42.664Z,99168.19
2019-03-11T18:46:13.148Z,99159.92
2019-03-11T18:48:43.142Z,99157.93
2019-03-11T18:51:12.838Z,99158.50
2019-03-11T18:53:42.482Z,99158.94
2019-03-11T18:56:12.181Z,99163.69
2019-03-11T18:58:41.820Z,99167.00
2019-03-11T19:01:11.599Z,99168.48
2019-03-11T19:03:41.353Z,99176.95
2019-03-11T19:06:11.125Z,99177.50
2019-03-11T19:08:40.808Z,99183.30
2019-03-11T19:11:11.551Z,99181.64
2019-03-11T19:13:41.275Z,99190.22
2019-03-11T19:16:10.906Z,99182.03
2019-03-11T19:18:40.628Z,99195.67
2019-03-11T19:21:10.466Z,99191.31
2019-03-11T19:23:41.675Z,99190.52
2019-03-11T19:26:11.319Z,99197.78
2019-03-11T19:28:41.085Z,99197.05
2019-03-11T19:31:10.767Z,99199.61
2019-03-11T19:33:40.524Z,99205.59
2019-03-11T19:36:10.248Z,99201.17
2019-03-11T19:38:39.986Z,99211.98
2019-03-11T19:41:09.850Z,99210.20
2019-03-11T19:43:39.588Z,99217.13
2019-03-11T19:46:09.250Z,99223.47
2019-03-11T19:48:38.988Z,99224.70
2019-03-11T19:51:08.682Z,99237.23
2019-03-11T19:53:38.353Z,99232.95
2019-03-11T19:56:08.026Z,99241.17
2019-03-11T19:58:37.816Z,99239.59
2019-03-11T20:01:07.503Z,99234.19
2019-03-11T20:03:37.129Z,99236.34
2019-03-11T20:06:06.889Z,99235.25
2019-03-11T20:08:36.672Z,99237.48
2019-03-11T20:11:06.419Z,99241.09
2019-03-11T20:13:36.704Z,99246.77
2019-03-11T20:16:06.566Z,99243.98
2019-03-11T20:18:36.236Z,99246.52
2019-03-11T20:21:06.353Z,99249.70
2019-03-11T20:23:38.127Z,99253.47
2019-03-11T20:26:07.577Z,99253.52
2019-03-11T20:28:37.339Z,99255.18
2019-03-11T20:31:07.642Z,99259.73
2019-03-11T20:33:37.558Z,99264.70
2019-03-11T20:36:19.842Z,99266.65
2019-03-11T20:38:39.173Z,99275.68
2019-03-11T20:41:08.892Z,99261.87
2019-03-11T20:43:38.622Z,99265.20
2019-03-11T20:46:08.321Z,99275.43
2019-03-11T20:48:38.030Z,99278.16
2019-03-11T20:51:07.750Z,99277.70
2019-03-11T20:53:37.490Z,99281.10
2019-03-11T20:56:07.110Z,99283.84
2019-03-11T20:58:36.843Z,99283.21
2019-03-11T21:01:06.609Z,99280.94
2019-03-11T21:03:36.328Z,99275.68
2019-03-11T21:06:08.454Z,99274.10
2019-03-11T21:08:38.265Z,99305.08
2019-03-11T21:11:08.011Z,99291.83
2019-03-11T21:13:37.689Z,99289.38
2019-03-11T21:16:07.410Z,99286.73
2019-03-11T21:18:37.099Z,99282.38
2019-03-11T21:21:06.767Z,99291.95
2019-03-11T21:23:36.539Z,99301.10
2019-03-11T21:26:06.292Z,99308.56
2019-03-11T21:28:36.040Z,99302.30
2019-03-11T21:31:05.804Z,99312.66
2019-03-11T21:33:35.631Z,99316.59
2019-03-11T21:36:05.697Z,99308.06
2019-03-11T21:38:35.361Z,99310.96
2019-03-11T21:41:05.122Z,99308.69
2019-03-11T21:43:34.780Z,99304.29
2019-03-11T21:46:04.475Z,99310.13
2019-03-11T21:48:34.134Z,99309.38
2019-03-11T21:51:03.810Z,99307.48
2019-03-11T21:53:33.438Z,99311.08
2019-03-11T21:56:03.127Z,99317.09
2019-03-11T21:58:32.795Z,99321.23
2019-03-11T22:01:02.449Z,99326.16
2019-03-11T22:03:32.228Z,99315.55
2019-03-11T22:06:01.871Z,99322.70
2019-03-11T22:08:31.486Z,99318.52
2019-03-11T22:11:01.127Z,99318.64
2019-03-11T22:13:30.749Z,99315.04
2019-03-11T22:16:00.398Z,99317.10
2019-03-11T22:18:30.009Z,99315.23
2019-03-11T22:20:59.651Z,99325.58
2019-03-11T22:23:29.268Z,99327.44
2019-03-11T22:25:58.906Z,99325.25
2019-03-11T22:28:28.526Z,99317.88
2019-03-11T22:30:58.162Z,99319.09
2019-03-11T22:33:27.772Z,99328.39
2019-03-11T22:35:57.411Z,99330.05
2019-03-11T22:38:27.023Z,99333.13
2019-03-11T22:40:56.826Z,99341.60
2019-03-11T22:43:26.446Z,99341.51
2019-03-11T22:45:56.151Z,99349.59
2019-03-11T22:48:25.754Z,99348.09
2019-03-11T22:50:55.401Z,99348.98
2019-03-11T22:53:25.018Z,99359.16
2019-03-11T22:55:54.654Z,99361.37
2019-03-11T22:58:24.262Z,99358.36
2019-03-11T23:01:02.407Z,99362.72
2019-03-11T23:03:32.089Z,99359.84
2019-03-11T23:06:01.725Z,99367.28
2019-03-11T23:08:31.338Z,99359.14
2019-03-11T23:11:00.983Z,99362.25
2019-03-11T23:13:30.606Z,99366.48
2019-03-11T23:16:00.246Z,99366.55
2019-03-11T23:18:29.864Z,99363.00
2019-03-11T23:20:59.494Z,99369.25
2019-03-11T23:23:29.105Z,99371.98
2019-03-11T23:25:58.748Z,99375.55
2019-03-11T23:28:28.529Z,99371.42
2019-03-11T23:30:58.172Z,99379.94
2019-03-11T23:33:27.789Z,99380.20
2019-03-11T23:35:57.423Z,99385.50
2019-03-11T23:38:27.040Z,99381.36
2019-03-11T23:40:56.739Z,99388.15
2019-03-11T23:43:26.426Z,99385.05
2019-03-11T23:45:56.067Z,99387.86
2019-03-11T23:48:25.679Z,99380.84
2019-03-11T23:50:55.323Z,99386.60
2019-03-11T23:53:24.947Z,99384.35
2019-03-11T23:55:54.713Z,99383.72
2019-03-11T23:58:24.329Z,99381.90
